sensor_id;sensor_type;location;lat;lon;timestamp;temperature;humidity
58339;DHT22;68636;52.704;6.536;2023-05-10T00:00:27;13.00;99.90
58339;DHT22;68636;52.704;6.536;2023-05-10T00:02:52;13.00;99.90
58339;DHT22;68636;52.704;6.536;2023-05-10T00:05:18;13.00;99.90
58339;DHT22;68636;52.704;6.536;2023-05-10T00:07:44;13.00;99.90
58339;DHT22;68636;52.704;6.536;2023-05-10T00:10:11;13.00;99.90
58339;DHT22;68636;52.704;6.536;2023-05-10T00:12:37;13.00;99.90
58339;DHT22;68636;52.704;6.536;2023-05-10T00:15:03;13.00;99.90
58339;DHT22;68636;52.704;6.536;2023-05-10T00:17:29;13.00;99.90
58339;DHT22;68636;52.704;6.536;2023-05-10T00:19:54;13.00;99.90
58339;DHT22;68636;52.704;6.536;2023-05-10T00:22:20;13.00;99.90
58339;DHT22;68636;52.704;6.536;2023-05-10T00:24:46;13.00;99.90
58339;DHT22;68636;52.704;6.536;2023-05-10T00:27:12;13.00;99.90
58339;DHT22;68636;52.704;6.536;2023-05-10T00:29:38;13.00;99.90
58339;DHT22;68636;52.704;6.536;2023-05-10T00:32:04;13.00;99.90
58339;DHT22;68636;52.704;6.536;2023-05-10T00:34:29;13.00;99.90
58339;DHT22;68636;52.704;6.536;2023-05-10T00:36:55;13.00;99.90
58339;DHT22;68636;52.704;6.536;2023-05-10T00:39:21;13.00;99.90
58339;DHT22;68636;52.704;6.536;2023-05-10T00:41:47;13.00;99.90
58339;DHT22;68636;52.704;6.536;2023-05-10T00:44:13;13.00;99.90
58339;DHT22;68636;52.704;6.536;2023-05-10T00:46:39;13.00;99.90
58339;DHT22;68636;52.704;6.536;2023-05-10T00:49:04;13.00;99.90
58339;DHT22;68636;52.704;6.536;2023-05-10T00:51:31;13.00;99.90
58339;DHT22;68636;52.704;6.536;2023-05-10T00:53:57;13.00;99.90
58339;DHT22;68636;52.704;6.536;2023-05-10T00:56:24;13.00;99.90
58339;DHT22;68636;52.704;6.536;2023-05-10T00:58:50;13.00;99.90
58339;DHT22;68636;52.704;6.536;2023-05-10T01:01:16;13.00;99.90
58339;DHT22;68636;52.704;6.536;2023-05-10T01:03:42;13.00;99.90
58339;DHT22;68636;52.704;6.536;2023-05-10T01:06:09;13.00;99.90
58339;DHT22;68636;52.704;6.536;2023-05-10T01:08:36;13.00;99.90
58339;DHT22;68636;52.704;6.536;2023-05-10T01:11:01;12.90;99.90
58339;DHT22;68636;52.704;6.536;2023-05-10T01:13:38;13.00;99.90
58339;DHT22;68636;52.704;6.536;2023-05-10T01:16:05;13.00;99.90
58339;DHT22;68636;52.704;6.536;2023-05-10T01:18:37;12.90;99.90
58339;DHT22;68636;52.704;6.536;2023-05-10T01:21:23;13.00;99.90
58339;DHT22;68636;52.704;6.536;2023-05-10T01:24:08;12.90;99.90
58339;DHT22;68636;52.704;6.536;2023-05-10T01:35:03;12.90;99.90
58339;DHT22;68636;52.704;6.536;2023-05-10T01:37:43;12.90;99.90
58339;DHT22;68636;52.704;6.536;2023-05-10T01:40:13;12.90;99.90
58339;DHT22;68636;52.704;6.536;2023-05-10T01:42:50;12.90;99.90
58339;DHT22;68636;52.704;6.536;2023-05-10T01:45:41;12.90;99.90
58339;DHT22;68636;52.704;6.536;2023-05-10T01:48:11;12.80;99.90
58339;DHT22;68636;52.704;6.536;2023-05-10T01:50:42;12.80;99.90
58339;DHT22;68636;52.704;6.536;2023-05-10T01:53:11;12.90;99.90
58339;DHT22;68636;52.704;6.536;2023-05-10T01:55:43;12.90;99.90
58339;DHT22;68636;52.704;6.536;2023-05-10T01:58:14;12.90;99.90
58339;DHT22;68636;52.704;6.536;2023-05-10T02:00:43;12.90;99.90
58339;DHT22;68636;52.704;6.536;2023-05-10T02:03:10;12.90;99.90
58339;DHT22;68636;52.704;6.536;2023-05-10T02:05:38;12.90;99.90
58339;DHT22;68636;52.704;6.536;2023-05-10T02:08:09;12.90;99.90
58339;DHT22;68636;52.704;6.536;2023-05-10T02:10:35;12.90;99.90
58339;DHT22;68636;52.704;6.536;2023-05-10T02:13:02;12.90;99.90
58339;DHT22;68636;52.704;6.536;2023-05-10T02:15:30;12.90;99.90
58339;DHT22;68636;52.704;6.536;2023-05-10T02:17:58;12.90;99.90
58339;DHT22;68636;52.704;6.536;2023-05-10T02:20:26;12.90;99.90
58339;DHT22;68636;52.704;6.536;2023-05-10T02:22:54;12.90;99.90
58339;DHT22;68636;52.704;6.536;2023-05-10T02:25:22;12.90;99.90
58339;DHT22;68636;52.704;6.536;2023-05-10T02:27:48;12.90;99.90
58339;DHT22;68636;52.704;6.536;2023-05-10T02:30:15;12.90;99.90
58339;DHT22;68636;52.704;6.536;2023-05-10T02:32:42;12.90;99.90
58339;DHT22;68636;52.704;6.536;2023-05-10T02:35:09;12.90;99.90
58339;DHT22;68636;52.704;6.536;2023-05-10T02:37:37;12.90;99.90
58339;DHT22;68636;52.704;6.536;2023-05-10T02:40:05;12.90;99.90
58339;DHT22;68636;52.704;6.536;2023-05-10T02:42:35;12.90;99.90
58339;DHT22;68636;52.704;6.536;2023-05-10T02:45:04;12.90;99.90
58339;DHT22;68636;52.704;6.536;2023-05-10T02:47:30;12.90;99.90
58339;DHT22;68636;52.704;6.536;2023-05-10T02:49:56;12.90;99.90
58339;DHT22;68636;52.704;6.536;2023-05-10T02:52:39;12.80;99.90
58339;DHT22;68636;52.704;6.536;2023-05-10T02:55:05;12.90;99.90
58339;DHT22;68636;52.704;6.536;2023-05-10T03:02:45;12.80;99.90
58339;DHT22;68636;52.704;6.536;2023-05-10T03:05:11;12.80;99.90
58339;DHT22;68636;52.704;6.536;2023-05-10T03:07:37;12.90;99.90
58339;DHT22;68636;52.704;6.536;2023-05-10T03:10:03;12.90;99.90
58339;DHT22;68636;52.704;6.536;2023-05-10T03:12:41;12.90;99.90
58339;DHT22;68636;52.704;6.536;2023-05-10T03:20:41;12.80;99.90
58339;DHT22;68636;52.704;6.536;2023-05-10T03:23:50;12.80;99.90
58339;DHT22;68636;52.704;6.536;2023-05-10T03:26:20;12.90;99.90
58339;DHT22;68636;52.704;6.536;2023-05-10T03:28:48;12.90;99.90
58339;DHT22;68636;52.704;6.536;2023-05-10T03:31:14;12.80;99.90
58339;DHT22;68636;52.704;6.536;2023-05-10T03:33:50;12.80;99.90
58339;DHT22;68636;52.704;6.536;2023-05-10T03:36:16;12.80;99.90
58339;DHT22;68636;52.704;6.536;2023-05-10T03:38:42;12.80;99.90
58339;DHT22;68636;52.704;6.536;2023-05-10T03:41:08;12.80;99.90
58339;DHT22;68636;52.704;6.536;2023-05-10T03:43:34;12.80;99.90
58339;DHT22;68636;52.704;6.536;2023-05-10T03:46:04;12.80;99.90
58339;DHT22;68636;52.704;6.536;2023-05-10T03:48:32;12.80;99.90
58339;DHT22;68636;52.704;6.536;2023-05-10T03:50:57;12.80;99.90
58339;DHT22;68636;52.704;6.536;2023-05-10T03:53:23;12.80;99.90
58339;DHT22;68636;52.704;6.536;2023-05-10T03:55:49;12.80;99.90
58339;DHT22;68636;52.704;6.536;2023-05-10T03:58:15;12.80;99.90
58339;DHT22;68636;52.704;6.536;2023-05-10T04:00:40;12.90;99.90
58339;DHT22;68636;52.704;6.536;2023-05-10T04:03:11;12.80;99.90
58339;DHT22;68636;52.704;6.536;2023-05-10T04:05:37;12.80;99.90
58339;DHT22;68636;52.704;6.536;2023-05-10T04:08:03;12.80;99.90
58339;DHT22;68636;52.704;6.536;2023-05-10T04:10:29;12.80;99.90
58339;DHT22;68636;52.704;6.536;2023-05-10T04:12:55;12.80;99.90
58339;DHT22;68636;52.704;6.536;2023-05-10T04:15:21;12.80;99.90
58339;DHT22;68636;52.704;6.536;2023-05-10T04:17:47;12.80;99.90
58339;DHT22;68636;52.704;6.536;2023-05-10T04:20:13;12.80;99.90
58339;DHT22;68636;52.704;6.536;2023-05-10T04:22:38;12.80;99.90
58339;DHT22;68636;52.704;6.536;2023-05-10T04:25:05;12.80;99.90
58339;DHT22;68636;52.704;6.536;2023-05-10T04:27:31;12.80;99.90
58339;DHT22;68636;52.704;6.536;2023-05-10T04:29:57;12.80;99.90
58339;DHT22;68636;52.704;6.536;2023-05-10T04:32:23;12.80;99.90
58339;DHT22;68636;52.704;6.536;2023-05-10T04:34:49;12.80;99.90
58339;DHT22;68636;52.704;6.536;2023-05-10T04:37:16;12.80;99.90
58339;DHT22;68636;52.704;6.536;2023-05-10T04:39:41;12.80;99.90
58339;DHT22;68636;52.704;6.536;2023-05-10T04:42:07;12.80;99.90
58339;DHT22;68636;52.704;6.536;2023-05-10T04:44:33;12.80;99.90
58339;DHT22;68636;52.704;6.536;2023-05-10T04:46:59;12.80;99.90
58339;DHT22;68636;52.704;6.536;2023-05-10T04:49:24;12.80;99.90
58339;DHT22;68636;52.704;6.536;2023-05-10T04:51:50;12.80;99.90
58339;DHT22;68636;52.704;6.536;2023-05-10T04:54:16;12.80;99.90
58339;DHT22;68636;52.704;6.536;2023-05-10T04:56:41;12.80;99.90
58339;DHT22;68636;52.704;6.536;2023-05-10T04:59:08;12.80;99.90
58339;DHT22;68636;52.704;6.536;2023-05-10T05:01:34;12.80;99.90
58339;DHT22;68636;52.704;6.536;2023-05-10T05:04:00;12.80;99.90
58339;DHT22;68636;52.704;6.536;2023-05-10T05:06:26;12.80;99.90
58339;DHT22;68636;52.704;6.536;2023-05-10T05:08:52;12.80;99.90
58339;DHT22;68636;52.704;6.536;2023-05-10T05:11:21;12.80;99.90
58339;DHT22;68636;52.704;6.536;2023-05-10T05:13:47;12.80;99.90
58339;DHT22;68636;52.704;6.536;2023-05-10T05:16:13;12.80;99.90
58339;DHT22;68636;52.704;6.536;2023-05-10T05:18:39;12.80;99.90
58339;DHT22;68636;52.704;6.536;2023-05-10T05:21:17;12.80;99.90
58339;DHT22;68636;52.704;6.536;2023-05-10T05:23:43;12.90;99.90
58339;DHT22;68636;52.704;6.536;2023-05-10T05:26:09;12.90;99.90
58339;DHT22;68636;52.704;6.536;2023-05-10T05:28:35;12.90;99.90
58339;DHT22;68636;52.704;6.536;2023-05-10T05:31:06;12.90;99.90
58339;DHT22;68636;52.704;6.536;2023-05-10T05:33:33;13.00;99.90
58339;DHT22;68636;52.704;6.536;2023-05-10T05:36:03;13.00;99.90
58339;DHT22;68636;52.704;6.536;2023-05-10T05:38:29;13.00;99.90
58339;DHT22;68636;52.704;6.536;2023-05-10T05:40:55;13.00;99.90
58339;DHT22;68636;52.704;6.536;2023-05-10T05:43:20;13.10;99.90
58339;DHT22;68636;52.704;6.536;2023-05-10T05:45:46;13.00;99.90
58339;DHT22;68636;52.704;6.536;2023-05-10T05:48:12;13.10;99.90
58339;DHT22;68636;52.704;6.536;2023-05-10T05:50:37;13.10;99.90
58339;DHT22;68636;52.704;6.536;2023-05-10T05:53:03;13.20;99.90
58339;DHT22;68636;52.704;6.536;2023-05-10T05:55:29;13.30;99.90
58339;DHT22;68636;52.704;6.536;2023-05-10T05:57:57;13.30;99.90
58339;DHT22;68636;52.704;6.536;2023-05-10T06:00:23;13.30;99.90
58339;DHT22;68636;52.704;6.536;2023-05-10T06:02:48;13.40;99.90
58339;DHT22;68636;52.704;6.536;2023-05-10T06:05:14;13.40;99.90
58339;DHT22;68636;52.704;6.536;2023-05-10T06:07:40;13.40;99.90
58339;DHT22;68636;52.704;6.536;2023-05-10T06:10:08;13.50;99.90
58339;DHT22;68636;52.704;6.536;2023-05-10T06:12:34;13.50;99.90
58339;DHT22;68636;52.704;6.536;2023-05-10T06:15:00;13.40;99.90
58339;DHT22;68636;52.704;6.536;2023-05-10T06:17:26;13.40;99.90
58339;DHT22;68636;52.704;6.536;2023-05-10T06:19:52;13.40;99.90
58339;DHT22;68636;52.704;6.536;2023-05-10T06:22:18;13.40;99.90
58339;DHT22;68636;52.704;6.536;2023-05-10T06:24:44;13.50;99.90
58339;DHT22;68636;52.704;6.536;2023-05-10T06:27:10;13.70;99.90
58339;DHT22;68636;52.704;6.536;2023-05-10T06:29:35;14.00;99.90
58339;DHT22;68636;52.704;6.536;2023-05-10T06:32:01;14.20;99.90
58339;DHT22;68636;52.704;6.536;2023-05-10T06:34:27;14.40;99.90
58339;DHT22;68636;52.704;6.536;2023-05-10T06:36:53;14.50;99.90
58339;DHT22;68636;52.704;6.536;2023-05-10T06:39:19;14.50;99.90
58339;DHT22;68636;52.704;6.536;2023-05-10T06:41:45;14.50;99.90
58339;DHT22;68636;52.704;6.536;2023-05-10T06:44:10;14.60;99.90
58339;DHT22;68636;52.704;6.536;2023-05-10T06:46:36;14.70;99.90
58339;DHT22;68636;52.704;6.536;2023-05-10T06:49:02;14.70;99.90
58339;DHT22;68636;52.704;6.536;2023-05-10T06:51:28;14.60;99.90
58339;DHT22;68636;52.704;6.536;2023-05-10T06:53:53;14.70;99.90
58339;DHT22;68636;52.704;6.536;2023-05-10T06:56:19;14.60;99.90
58339;DHT22;68636;52.704;6.536;2023-05-10T06:58:47;14.70;99.90
58339;DHT22;68636;52.704;6.536;2023-05-10T07:01:13;14.70;99.90
58339;DHT22;68636;52.704;6.536;2023-05-10T07:03:39;14.90;99.90
58339;DHT22;68636;52.704;6.536;2023-05-10T07:06:05;14.70;99.90
58339;DHT22;68636;52.704;6.536;2023-05-10T07:08:33;14.70;99.90
58339;DHT22;68636;52.704;6.536;2023-05-10T07:11:03;14.70;99.90
58339;DHT22;68636;52.704;6.536;2023-05-10T07:13:31;14.70;99.90
58339;DHT22;68636;52.704;6.536;2023-05-10T07:15:58;14.70;99.90
58339;DHT22;68636;52.704;6.536;2023-05-10T07:18:24;14.60;99.90
58339;DHT22;68636;52.704;6.536;2023-05-10T07:20:50;14.50;99.90
58339;DHT22;68636;52.704;6.536;2023-05-10T07:23:16;14.60;99.90
58339;DHT22;68636;52.704;6.536;2023-05-10T07:25:49;14.60;99.90
58339;DHT22;68636;52.704;6.536;2023-05-10T07:28:17;14.60;99.90
58339;DHT22;68636;52.704;6.536;2023-05-10T07:30:43;14.70;99.90
58339;DHT22;68636;52.704;6.536;2023-05-10T07:33:10;14.80;99.90
58339;DHT22;68636;52.704;6.536;2023-05-10T07:35:36;14.90;99.90
58339;DHT22;68636;52.704;6.536;2023-05-10T07:38:01;14.90;99.90
58339;DHT22;68636;52.704;6.536;2023-05-10T07:40:28;14.90;99.90
58339;DHT22;68636;52.704;6.536;2023-05-10T07:42:54;15.00;99.90
58339;DHT22;68636;52.704;6.536;2023-05-10T07:45:19;14.90;99.90
58339;DHT22;68636;52.704;6.536;2023-05-10T07:47:45;14.90;99.90
58339;DHT22;68636;52.704;6.536;2023-05-10T07:50:11;14.90;99.90
58339;DHT22;68636;52.704;6.536;2023-05-10T07:52:36;14.80;99.90
58339;DHT22;68636;52.704;6.536;2023-05-10T07:55:02;14.90;99.90
58339;DHT22;68636;52.704;6.536;2023-05-10T07:57:28;14.90;99.90
58339;DHT22;68636;52.704;6.536;2023-05-10T07:59:54;15.10;99.90
58339;DHT22;68636;52.704;6.536;2023-05-10T08:02:20;15.10;99.90
58339;DHT22;68636;52.704;6.536;2023-05-10T08:04:45;15.10;99.90
58339;DHT22;68636;52.704;6.536;2023-05-10T08:07:11;15.20;99.90
58339;DHT22;68636;52.704;6.536;2023-05-10T08:09:37;15.30;99.90
58339;DHT22;68636;52.704;6.536;2023-05-10T08:12:03;15.40;99.90
58339;DHT22;68636;52.704;6.536;2023-05-10T08:14:29;15.30;99.90
58339;DHT22;68636;52.704;6.536;2023-05-10T08:16:55;15.40;99.90
58339;DHT22;68636;52.704;6.536;2023-05-10T08:19:21;15.70;99.90
58339;DHT22;68636;52.704;6.536;2023-05-10T08:21:48;15.90;99.90
58339;DHT22;68636;52.704;6.536;2023-05-10T08:24:14;16.10;99.90
58339;DHT22;68636;52.704;6.536;2023-05-10T08:26:39;16.20;99.90
58339;DHT22;68636;52.704;6.536;2023-05-10T08:29:05;16.30;99.90
58339;DHT22;68636;52.704;6.536;2023-05-10T08:31:31;16.50;99.90
58339;DHT22;68636;52.704;6.536;2023-05-10T08:33:57;16.40;99.90
58339;DHT22;68636;52.704;6.536;2023-05-10T08:36:22;16.40;99.90
58339;DHT22;68636;52.704;6.536;2023-05-10T08:38:53;16.30;99.90
58339;DHT22;68636;52.704;6.536;2023-05-10T08:41:23;16.40;99.90
58339;DHT22;68636;52.704;6.536;2023-05-10T08:43:55;16.40;99.90
58339;DHT22;68636;52.704;6.536;2023-05-10T08:46:22;16.40;99.90
58339;DHT22;68636;52.704;6.536;2023-05-10T08:48:49;16.40;99.90
58339;DHT22;68636;52.704;6.536;2023-05-10T08:51:22;16.40;99.90
58339;DHT22;68636;52.704;6.536;2023-05-10T08:53:47;16.30;99.90
58339;DHT22;68636;52.704;6.536;2023-05-10T08:56:14;16.30;99.90
58339;DHT22;68636;52.704;6.536;2023-05-10T08:58:41;16.20;99.90
58339;DHT22;68636;52.704;6.536;2023-05-10T09:01:07;16.20;99.90
58339;DHT22;68636;52.704;6.536;2023-05-10T09:03:34;16.30;99.90
58339;DHT22;68636;52.704;6.536;2023-05-10T09:06:00;16.30;99.90
58339;DHT22;68636;52.704;6.536;2023-05-10T09:08:26;16.30;99.90
58339;DHT22;68636;52.704;6.536;2023-05-10T09:10:54;16.30;99.90
58339;DHT22;68636;52.704;6.536;2023-05-10T09:13:22;16.40;99.90
58339;DHT22;68636;52.704;6.536;2023-05-10T09:15:49;16.50;99.90
58339;DHT22;68636;52.704;6.536;2023-05-10T09:18:14;16.50;99.90
58339;DHT22;68636;52.704;6.536;2023-05-10T09:20:42;16.50;99.90
58339;DHT22;68636;52.704;6.536;2023-05-10T09:23:07;16.40;99.90
58339;DHT22;68636;52.704;6.536;2023-05-10T09:25:34;16.40;99.90
58339;DHT22;68636;52.704;6.536;2023-05-10T09:28:00;16.40;99.90
58339;DHT22;68636;52.704;6.536;2023-05-10T09:30:27;16.40;99.90
58339;DHT22;68636;52.704;6.536;2023-05-10T09:32:54;16.50;99.90
58339;DHT22;68636;52.704;6.536;2023-05-10T09:35:22;16.40;99.90
58339;DHT22;68636;52.704;6.536;2023-05-10T09:37:50;16.50;99.90
58339;DHT22;68636;52.704;6.536;2023-05-10T09:40:22;16.50;99.90
58339;DHT22;68636;52.704;6.536;2023-05-10T09:42:52;16.40;99.90
58339;DHT22;68636;52.704;6.536;2023-05-10T09:45:19;16.40;99.90
58339;DHT22;68636;52.704;6.536;2023-05-10T09:47:45;16.60;99.90
58339;DHT22;68636;52.704;6.536;2023-05-10T09:50:11;16.70;99.90
58339;DHT22;68636;52.704;6.536;2023-05-10T09:52:52;16.60;99.90
58339;DHT22;68636;52.704;6.536;2023-05-10T09:55:23;16.70;99.90
58339;DHT22;68636;52.704;6.536;2023-05-10T09:57:58;16.70;99.90
58339;DHT22;68636;52.704;6.536;2023-05-10T10:00:24;16.80;99.90
58339;DHT22;68636;52.704;6.536;2023-05-10T10:02:59;16.60;99.90
58339;DHT22;68636;52.704;6.536;2023-05-10T10:05:32;16.60;99.90
58339;DHT22;68636;52.704;6.536;2023-05-10T10:07:59;16.60;99.90
58339;DHT22;68636;52.704;6.536;2023-05-10T10:10:26;16.60;99.90
58339;DHT22;68636;52.704;6.536;2023-05-10T10:12:52;16.60;99.90
58339;DHT22;68636;52.704;6.536;2023-05-10T10:15:20;16.70;99.90
58339;DHT22;68636;52.704;6.536;2023-05-10T10:17:46;16.70;99.90
58339;DHT22;68636;52.704;6.536;2023-05-10T10:20:14;16.80;99.90
58339;DHT22;68636;52.704;6.536;2023-05-10T10:22:40;16.80;99.90
58339;DHT22;68636;52.704;6.536;2023-05-10T10:25:07;16.70;99.90
58339;DHT22;68636;52.704;6.536;2023-05-10T10:30:42;16.60;99.90
58339;DHT22;68636;52.704;6.536;2023-05-10T10:36:09;16.60;99.90
58339;DHT22;68636;52.704;6.536;2023-05-10T10:49:42;16.40;99.90
58339;DHT22;68636;52.704;6.536;2023-05-10T10:52:36;16.50;99.90
58339;DHT22;68636;52.704;6.536;2023-05-10T10:55:07;16.60;99.90
58339;DHT22;68636;52.704;6.536;2023-05-10T11:03:10;16.90;99.90
58339;DHT22;68636;52.704;6.536;2023-05-10T11:05:49;17.00;99.90
58339;DHT22;68636;52.704;6.536;2023-05-10T11:08:33;17.20;99.90
58339;DHT22;68636;52.704;6.536;2023-05-10T11:13:37;17.40;99.90
58339;DHT22;68636;52.704;6.536;2023-05-10T11:16:23;17.20;99.90
58339;DHT22;68636;52.704;6.536;2023-05-10T11:19:03;17.20;99.90
58339;DHT22;68636;52.704;6.536;2023-05-10T11:21:30;17.20;99.90
58339;DHT22;68636;52.704;6.536;2023-05-10T11:23:57;17.30;99.90
58339;DHT22;68636;52.704;6.536;2023-05-10T11:26:35;17.30;99.90
58339;DHT22;68636;52.704;6.536;2023-05-10T11:29:01;17.40;99.90
58339;DHT22;68636;52.704;6.536;2023-05-10T11:31:28;17.50;99.90
58339;DHT22;68636;52.704;6.536;2023-05-10T11:33:59;17.50;99.90
58339;DHT22;68636;52.704;6.536;2023-05-10T11:36:28;17.40;99.90
58339;DHT22;68636;52.704;6.536;2023-05-10T11:38:55;17.40;99.90
58339;DHT22;68636;52.704;6.536;2023-05-10T11:41:22;17.20;99.90
58339;DHT22;68636;52.704;6.536;2023-05-10T11:43:52;17.10;99.90
58339;DHT22;68636;52.704;6.536;2023-05-10T11:46:23;17.00;99.90
58339;DHT22;68636;52.704;6.536;2023-05-10T11:48:50;17.00;99.90
58339;DHT22;68636;52.704;6.536;2023-05-10T11:51:23;17.00;99.90
58339;DHT22;68636;52.704;6.536;2023-05-10T11:53:52;17.00;99.90
58339;DHT22;68636;52.704;6.536;2023-05-10T11:56:18;17.10;99.90
58339;DHT22;68636;52.704;6.536;2023-05-10T11:58:44;17.10;99.90
58339;DHT22;68636;52.704;6.536;2023-05-10T12:01:10;17.10;99.90
58339;DHT22;68636;52.704;6.536;2023-05-10T12:03:37;17.20;99.90
58339;DHT22;68636;52.704;6.536;2023-05-10T12:06:04;17.20;99.90
58339;DHT22;68636;52.704;6.536;2023-05-10T12:08:30;17.20;99.90
58339;DHT22;68636;52.704;6.536;2023-05-10T12:11:09;17.30;99.90
58339;DHT22;68636;52.704;6.536;2023-05-10T12:13:43;16.80;99.90
58339;DHT22;68636;52.704;6.536;2023-05-10T12:16:17;17.00;99.90
58339;DHT22;68636;52.704;6.536;2023-05-10T12:18:43;17.20;99.90
58339;DHT22;68636;52.704;6.536;2023-05-10T12:21:12;17.20;99.90
58339;DHT22;68636;52.704;6.536;2023-05-10T12:23:39;17.30;99.90
58339;DHT22;68636;52.704;6.536;2023-05-10T12:26:05;17.30;99.90
58339;DHT22;68636;52.704;6.536;2023-05-10T12:28:32;17.10;99.90
58339;DHT22;68636;52.704;6.536;2023-05-10T12:31:02;17.10;99.90
58339;DHT22;68636;52.704;6.536;2023-05-10T12:33:35;17.00;99.90
58339;DHT22;68636;52.704;6.536;2023-05-10T12:36:02;17.10;99.90
58339;DHT22;68636;52.704;6.536;2023-05-10T12:38:35;17.00;99.90
58339;DHT22;68636;52.704;6.536;2023-05-10T12:41:08;17.00;99.90
58339;DHT22;68636;52.704;6.536;2023-05-10T12:43:35;17.00;99.90
58339;DHT22;68636;52.704;6.536;2023-05-10T12:46:09;17.00;99.90
58339;DHT22;68636;52.704;6.536;2023-05-10T12:48:36;17.10;99.90
58339;DHT22;68636;52.704;6.536;2023-05-10T12:51:08;17.30;99.90
58339;DHT22;68636;52.704;6.536;2023-05-10T12:53:35;17.40;99.90
58339;DHT22;68636;52.704;6.536;2023-05-10T12:56:02;17.60;99.90
58339;DHT22;68636;52.704;6.536;2023-05-10T12:58:28;17.70;99.90
58339;DHT22;68636;52.704;6.536;2023-05-10T13:00:53;17.80;99.90
58339;DHT22;68636;52.704;6.536;2023-05-10T13:03:19;17.90;99.90
58339;DHT22;68636;52.704;6.536;2023-05-10T13:05:45;18.00;99.90
58339;DHT22;68636;52.704;6.536;2023-05-10T13:08:11;18.00;99.90
58339;DHT22;68636;52.704;6.536;2023-05-10T13:10:37;18.10;99.90
58339;DHT22;68636;52.704;6.536;2023-05-10T13:13:02;18.10;99.90
58339;DHT22;68636;52.704;6.536;2023-05-10T13:15:28;18.10;99.90
58339;DHT22;68636;52.704;6.536;2023-05-10T13:17:54;18.00;99.90
58339;DHT22;68636;52.704;6.536;2023-05-10T13:20:21;18.00;99.90
58339;DHT22;68636;52.704;6.536;2023-05-10T13:22:47;17.90;99.90
58339;DHT22;68636;52.704;6.536;2023-05-10T13:25:13;17.80;99.90
58339;DHT22;68636;52.704;6.536;2023-05-10T13:27:39;17.80;99.90
58339;DHT22;68636;52.704;6.536;2023-05-10T13:30:07;17.70;99.90
58339;DHT22;68636;52.704;6.536;2023-05-10T13:32:33;17.50;99.90
58339;DHT22;68636;52.704;6.536;2023-05-10T13:34:59;17.30;99.90
58339;DHT22;68636;52.704;6.536;2023-05-10T13:37:24;17.10;99.90
58339;DHT22;68636;52.704;6.536;2023-05-10T13:39:50;17.00;99.90
58339;DHT22;68636;52.704;6.536;2023-05-10T13:42:16;16.80;99.90
58339;DHT22;68636;52.704;6.536;2023-05-10T13:44:45;16.80;99.90
58339;DHT22;68636;52.704;6.536;2023-05-10T13:47:11;16.80;99.90
58339;DHT22;68636;52.704;6.536;2023-05-10T13:49:36;16.90;99.90
58339;DHT22;68636;52.704;6.536;2023-05-10T13:52:03;16.90;99.90
58339;DHT22;68636;52.704;6.536;2023-05-10T13:54:33;16.90;99.90
58339;DHT22;68636;52.704;6.536;2023-05-10T13:56:59;16.90;99.90
58339;DHT22;68636;52.704;6.536;2023-05-10T13:59:25;16.80;99.90
58339;DHT22;68636;52.704;6.536;2023-05-10T14:01:51;16.80;99.90
58339;DHT22;68636;52.704;6.536;2023-05-10T14:04:17;16.90;99.90
58339;DHT22;68636;52.704;6.536;2023-05-10T14:06:42;16.80;99.90
58339;DHT22;68636;52.704;6.536;2023-05-10T14:09:08;16.90;99.90
58339;DHT22;68636;52.704;6.536;2023-05-10T14:11:34;17.00;99.90
58339;DHT22;68636;52.704;6.536;2023-05-10T14:13:59;17.00;99.90
58339;DHT22;68636;52.704;6.536;2023-05-10T14:16:25;16.90;99.90
58339;DHT22;68636;52.704;6.536;2023-05-10T14:18:52;17.10;99.90
58339;DHT22;68636;52.704;6.536;2023-05-10T14:21:18;17.20;99.90
58339;DHT22;68636;52.704;6.536;2023-05-10T14:23:43;17.20;99.90
58339;DHT22;68636;52.704;6.536;2023-05-10T14:26:09;17.20;99.90
58339;DHT22;68636;52.704;6.536;2023-05-10T14:28:35;17.10;99.90
58339;DHT22;68636;52.704;6.536;2023-05-10T14:31:01;16.90;99.90
58339;DHT22;68636;52.704;6.536;2023-05-10T14:33:27;16.90;99.90
58339;DHT22;68636;52.704;6.536;2023-05-10T14:35:54;16.70;99.90
58339;DHT22;68636;52.704;6.536;2023-05-10T14:38:21;16.70;99.90
58339;DHT22;68636;52.704;6.536;2023-05-10T14:40:47;16.60;99.90
58339;DHT22;68636;52.704;6.536;2023-05-10T14:43:13;16.50;99.90
58339;DHT22;68636;52.704;6.536;2023-05-10T14:45:39;16.50;99.90
58339;DHT22;68636;52.704;6.536;2023-05-10T14:48:05;16.40;99.90
58339;DHT22;68636;52.704;6.536;2023-05-10T14:50:31;16.30;99.90
58339;DHT22;68636;52.704;6.536;2023-05-10T14:52:58;16.30;99.90
58339;DHT22;68636;52.704;6.536;2023-05-10T14:55:24;16.20;99.90
58339;DHT22;68636;52.704;6.536;2023-05-10T14:57:50;16.20;99.90
58339;DHT22;68636;52.704;6.536;2023-05-10T15:00:16;16.30;99.90
58339;DHT22;68636;52.704;6.536;2023-05-10T15:02:42;16.30;99.90
58339;DHT22;68636;52.704;6.536;2023-05-10T15:05:08;16.30;99.90
58339;DHT22;68636;52.704;6.536;2023-05-10T15:07:34;16.40;99.90
58339;DHT22;68636;52.704;6.536;2023-05-10T15:09:59;16.30;99.90
58339;DHT22;68636;52.704;6.536;2023-05-10T15:12:25;16.40;99.90
58339;DHT22;68636;52.704;6.536;2023-05-10T15:14:51;16.40;99.90
58339;DHT22;68636;52.704;6.536;2023-05-10T15:17:17;16.40;99.90
58339;DHT22;68636;52.704;6.536;2023-05-10T15:19:43;16.40;99.90
58339;DHT22;68636;52.704;6.536;2023-05-10T15:22:08;16.60;99.90
58339;DHT22;68636;52.704;6.536;2023-05-10T15:24:34;16.60;99.90
58339;DHT22;68636;52.704;6.536;2023-05-10T15:27:00;16.60;99.90
58339;DHT22;68636;52.704;6.536;2023-05-10T15:29:26;16.70;99.90
58339;DHT22;68636;52.704;6.536;2023-05-10T15:31:52;16.70;99.90
58339;DHT22;68636;52.704;6.536;2023-05-10T15:34:18;16.80;99.90
58339;DHT22;68636;52.704;6.536;2023-05-10T15:36:44;16.90;99.90
58339;DHT22;68636;52.704;6.536;2023-05-10T15:39:11;16.90;99.90
58339;DHT22;68636;52.704;6.536;2023-05-10T15:41:37;17.00;99.90
58339;DHT22;68636;52.704;6.536;2023-05-10T15:44:03;17.00;99.90
58339;DHT22;68636;52.704;6.536;2023-05-10T15:46:29;17.00;99.90
58339;DHT22;68636;52.704;6.536;2023-05-10T15:48:56;16.90;99.90
58339;DHT22;68636;52.704;6.536;2023-05-10T15:51:22;16.90;99.90
58339;DHT22;68636;52.704;6.536;2023-05-10T15:53:47;17.00;99.90
58339;DHT22;68636;52.704;6.536;2023-05-10T15:56:13;17.10;99.90
58339;DHT22;68636;52.704;6.536;2023-05-10T15:58:40;17.10;99.90
58339;DHT22;68636;52.704;6.536;2023-05-10T16:01:06;17.20;99.90
58339;DHT22;68636;52.704;6.536;2023-05-10T16:03:32;17.30;99.90
58339;DHT22;68636;52.704;6.536;2023-05-10T16:05:58;17.20;99.90
58339;DHT22;68636;52.704;6.536;2023-05-10T16:08:24;17.20;99.90
58339;DHT22;68636;52.704;6.536;2023-05-10T16:10:51;17.30;99.90
58339;DHT22;68636;52.704;6.536;2023-05-10T16:13:17;17.30;99.90
58339;DHT22;68636;52.704;6.536;2023-05-10T16:15:42;17.30;99.90